sensor_id;sensor_type;location;lat;lon;timestamp;pressure;altitude;pressure_sealevel;temperature;humidity
8451;BME280;4262;50.980;13.892;2024-02-23T00:00:28;85917.06;;;-142.97;50.95
8451;BME280;4262;50.980;13.892;2024-02-23T00:02:55;85928.88;;;-142.97;51.02
8451;BME280;4262;50.980;13.892;2024-02-23T00:05:23;85885.53;;;-142.97;50.96
8451;BME280;4262;50.980;13.892;2024-02-23T00:07:50;85881.59;;;-142.97;50.88
8451;BME280;4262;50.980;13.892;2024-02-23T00:10:17;85915.09;;;-142.97;51.10
8451;BME280;4262;50.980;13.892;2024-02-23T00:12:45;85871.75;;;-142.97;50.99
8451;BME280;4262;50.980;13.892;2024-02-23T00:15:13;85903.25;;;-142.97;51.41
8451;BME280;4262;50.980;13.892;2024-02-23T00:17:40;85891.44;;;-142.97;50.93
8451;BME280;4262;50.980;13.892;2024-02-23T00:20:09;85980.09;;;-142.97;50.99
8451;BME280;4262;50.980;13.892;2024-02-23T00:22:36;85903.25;;;-142.97;50.95
8451;BME280;4262;50.980;13.892;2024-02-23T00:25:03;85897.34;;;-142.97;51.15
8451;BME280;4262;50.980;13.892;2024-02-23T00:27:30;85936.75;;;-142.97;51.56
8451;BME280;4262;50.980;13.892;2024-02-23T00:29:58;85885.53;;;-142.97;51.09
8451;BME280;4262;50.980;13.892;2024-02-23T00:32:25;85895.38;;;-142.97;51.11
8451;BME280;4262;50.980;13.892;2024-02-23T00:34:52;85865.81;;;-142.97;50.82
8451;BME280;4262;50.980;13.892;2024-02-23T00:37:19;85891.44;;;-142.97;50.88
8451;BME280;4262;50.980;13.892;2024-02-23T00:39:46;85891.44;;;-142.97;50.69
8451;BME280;4262;50.980;13.892;2024-02-23T00:42:13;85875.69;;;-142.97;50.48
8451;BME280;4262;50.980;13.892;2024-02-23T00:44:39;85857.94;;;-142.97;50.62
8451;BME280;4262;50.980;13.892;2024-02-23T00:47:07;85871.75;;;-142.97;50.87
8451;BME280;4262;50.980;13.892;2024-02-23T00:49:35;85921.00;;;-142.97;51.20
8451;BME280;4262;50.980;13.892;2024-02-23T00:52:02;85917.06;;;-142.97;51.00
8451;BME280;4262;50.980;13.892;2024-02-23T00:54:29;85922.97;;;-142.97;51.22
8451;BME280;4262;50.980;13.892;2024-02-23T00:56:55;85883.56;;;-142.97;50.71
8451;BME280;4262;50.980;13.892;2024-02-23T00:59:22;85861.88;;;-142.97;50.60
8451;BME280;4262;50.980;13.892;2024-02-23T01:01:49;85865.81;;;-142.97;50.39
8451;BME280;4262;50.980;13.892;2024-02-23T01:04:17;85867.78;;;-142.97;50.24
8451;BME280;4262;50.980;13.892;2024-02-23T01:06:44;85684.59;;;-142.97;50.18
8451;BME280;4262;50.980;13.892;2024-02-23T01:09:10;85887.50;;;-142.97;50.54
8451;BME280;4262;50.980;13.892;2024-02-23T01:11:37;85917.06;;;-142.97;50.60
8451;BME280;4262;50.980;13.892;2024-02-23T01:14:04;85954.47;;;-142.97;51.14
8451;BME280;4262;50.980;13.892;2024-02-23T01:16:32;85899.31;;;-142.97;50.70
8451;BME280;4262;50.980;13.892;2024-02-23T01:18:59;85907.19;;;-142.97;50.79
8451;BME280;4262;50.980;13.892;2024-02-23T01:21:27;85887.50;;;-142.97;50.37
8451;BME280;4262;50.980;13.892;2024-02-23T01:23:54;85875.69;;;-142.97;50.41
8451;BME280;4262;50.980;13.892;2024-02-23T01:26:22;85995.84;;;-142.97;50.79
8451;BME280;4262;50.980;13.892;2024-02-23T01:28:49;85895.38;;;-142.97;50.54
8451;BME280;4262;50.980;13.892;2024-02-23T01:31:16;85897.34;;;-142.97;50.19
8451;BME280;4262;50.980;13.892;2024-02-23T01:33:43;85887.50;;;-142.97;49.79
8451;BME280;4262;50.980;13.892;2024-02-23T01:36:10;85867.78;;;-142.97;49.26
8451;BME280;4262;50.980;13.892;2024-02-23T01:38:38;85948.56;;;-142.97;48.39
8451;BME280;4262;50.980;13.892;2024-02-23T01:41:08;85897.34;;;-142.97;47.89
8451;BME280;4262;50.980;13.892;2024-02-23T01:43:37;85875.69;;;-142.97;47.52
8451;BME280;4262;50.980;13.892;2024-02-23T01:46:04;85828.41;;;-142.97;47.04
8451;BME280;4262;50.980;13.892;2024-02-23T01:48:33;85846.13;;;-142.97;46.82
8451;BME280;4262;50.980;13.892;2024-02-23T01:51:00;85863.84;;;-142.97;46.01
8451;BME280;4262;50.980;13.892;2024-02-23T01:53:27;85865.81;;;-142.97;45.58
8451;BME280;4262;50.980;13.892;2024-02-23T01:55:55;85820.53;;;-142.97;45.19
8451;BME280;4262;50.980;13.892;2024-02-23T01:58:24;85857.94;;;-142.97;44.72
8451;BME280;4262;50.980;13.892;2024-02-23T02:00:51;85783.09;;;-142.97;44.30
8451;BME280;4262;50.980;13.892;2024-02-23T02:03:18;85861.88;;;-142.97;44.43
8451;BME280;4262;50.980;13.892;2024-02-23T02:05:45;85855.97;;;-142.97;44.38
8451;BME280;4262;50.980;13.892;2024-02-23T02:08:12;85871.75;;;-142.97;44.13
8451;BME280;4262;50.980;13.892;2024-02-23T02:10:39;85850.06;;;-142.97;44.18
8451;BME280;4262;50.980;13.892;2024-02-23T02:13:07;85820.53;;;-142.97;44.33
8451;BME280;4262;50.980;13.892;2024-02-23T02:15:34;85789.00;;;-142.97;43.58
8451;BME280;4262;50.980;13.892;2024-02-23T02:18:01;85869.78;;;-142.97;44.68
8451;BME280;4262;50.980;13.892;2024-02-23T02:20:32;85759.44;;;-142.97;44.57
8451;BME280;4262;50.980;13.892;2024-02-23T02:22:59;85830.38;;;-142.97;44.26
8451;BME280;4262;50.980;13.892;2024-02-23T02:25:25;85893.41;;;-142.97;44.23
8451;BME280;4262;50.980;13.892;2024-02-23T02:27:52;85838.25;;;-142.97;43.93
8451;BME280;4262;50.980;13.892;2024-02-23T02:30:20;85814.59;;;-142.97;43.73
8451;BME280;4262;50.980;13.892;2024-02-23T02:32:47;85818.53;;;-142.97;43.56
8451;BME280;4262;50.980;13.892;2024-02-23T02:35:14;85854.00;;;-142.97;43.86
8451;BME280;4262;50.980;13.892;2024-02-23T02:37:41;85879.63;;;-142.97;43.59
8451;BME280;4262;50.980;13.892;2024-02-23T02:40:08;85885.53;;;-142.97;43.02
8451;BME280;4262;50.980;13.892;2024-02-23T02:42:35;85897.34;;;-142.97;43.29
8451;BME280;4262;50.980;13.892;2024-02-23T02:45:02;85928.88;;;-142.97;42.67
8451;BME280;4262;50.980;13.892;2024-02-23T02:47:30;85885.53;;;-142.97;42.64
8451;BME280;4262;50.980;13.892;2024-02-23T02:49:57;85857.94;;;-142.97;42.45
8451;BME280;4262;50.980;13.892;2024-02-23T02:52:24;85873.72;;;-142.97;41.92
8451;BME280;4262;50.980;13.892;2024-02-23T02:54:51;86011.63;;;-142.97;42.02
8451;BME280;4262;50.980;13.892;2024-02-23T02:57:18;85690.50;;;-142.97;42.28
8451;BME280;4262;50.980;13.892;2024-02-23T02:59:45;85879.63;;;-142.97;41.74
8451;BME280;4262;50.980;13.892;2024-02-23T03:02:12;85871.75;;;-142.97;42.09
8451;BME280;4262;50.980;13.892;2024-02-23T03:04:46;85854.00;;;-142.97;41.86
8451;BME280;4262;50.980;13.892;2024-02-23T03:07:13;85861.88;;;-142.97;41.85
8451;BME280;4262;50.980;13.892;2024-02-23T03:09:40;85861.88;;;-142.97;41.63
8451;BME280;4262;50.980;13.892;2024-02-23T03:12:07;85879.63;;;-142.97;41.37
8451;BME280;4262;50.980;13.892;2024-02-23T03:14:34;85899.31;;;-142.97;42.02
8451;BME280;4262;50.980;13.892;2024-02-23T03:17:03;85921.00;;;-142.97;41.97
8451;BME280;4262;50.980;13.892;2024-02-23T03:19:30;85881.59;;;-142.97;41.73
8451;BME280;4262;50.980;13.892;2024-02-23T03:21:59;86053.00;;;-142.97;42.22
8451;BME280;4262;50.980;13.892;2024-02-23T03:24:26;85995.84;;;-142.97;42.07
8451;BME280;4262;50.980;13.892;2024-02-23T03:26:53;85928.88;;;-142.97;42.08
8451;BME280;4262;50.980;13.892;2024-02-23T03:29:20;85932.81;;;-142.97;42.05
8451;BME280;4262;50.980;13.892;2024-02-23T03:31:49;85956.44;;;-142.97;41.64
8451;BME280;4262;50.980;13.892;2024-02-23T03:34:16;85952.50;;;-142.97;41.99
8451;BME280;4262;50.980;13.892;2024-02-23T03:36:43;85936.75;;;-142.97;41.85
8451;BME280;4262;50.980;13.892;2024-02-23T03:39:11;85875.69;;;-142.97;41.88
8451;BME280;4262;50.980;13.892;2024-02-23T03:41:38;86025.41;;;-142.97;42.26
8451;BME280;4262;50.980;13.892;2024-02-23T03:44:05;85968.28;;;-142.97;41.87
8451;BME280;4262;50.980;13.892;2024-02-23T03:46:32;85984.03;;;-142.97;42.07
8451;BME280;4262;50.980;13.892;2024-02-23T03:49:00;85936.75;;;-142.97;42.01
8451;BME280;4262;50.980;13.892;2024-02-23T03:51:27;85954.47;;;-142.97;41.89
8451;BME280;4262;50.980;13.892;2024-02-23T03:53:53;85952.50;;;-142.97;41.99
8451;BME280;4262;50.980;13.892;2024-02-23T03:56:22;86001.75;;;-142.97;42.09
8451;BME280;4262;50.980;13.892;2024-02-23T03:58:48;86033.28;;;-142.97;42.37
8451;BME280;4262;50.980;13.892;2024-02-23T04:01:15;85989.94;;;-142.97;41.93
8451;BME280;4262;50.980;13.892;2024-02-23T04:03:42;85991.91;;;-142.97;42.16
8451;BME280;4262;50.980;13.892;2024-02-23T04:06:09;86074.66;;;-142.97;42.40
8451;BME280;4262;50.980;13.892;2024-02-23T04:08:36;86025.41;;;-142.97;42.80
8451;BME280;4262;50.980;13.892;2024-02-23T04:11:03;85980.09;;;-142.97;42.81
8451;BME280;4262;50.980;13.892;2024-02-23T04:13:31;86072.69;;;-142.97;43.66
8451;BME280;4262;50.980;13.892;2024-02-23T04:16:00;86045.09;;;-142.97;43.82
8451;BME280;4262;50.980;13.892;2024-02-23T04:18:26;86171.19;;;-142.97;43.76
8451;BME280;4262;50.980;13.892;2024-02-23T04:20:53;86159.38;;;-142.97;43.75
8451;BME280;4262;50.980;13.892;2024-02-23T04:23:20;85893.41;;;-142.97;43.61
8451;BME280;4262;50.980;13.892;2024-02-23T04:25:47;86177.09;;;-142.97;43.05
8451;BME280;4262;50.980;13.892;2024-02-23T04:28:13;86133.75;;;-142.97;42.69
8451;BME280;4262;50.980;13.892;2024-02-23T04:30:41;86153.47;;;-142.97;42.14
8451;BME280;4262;50.980;13.892;2024-02-23T04:33:08;86185.00;;;-142.97;41.57
8451;BME280;4262;50.980;13.892;2024-02-23T04:35:35;86181.06;;;-142.97;41.63
8451;BME280;4262;50.980;13.892;2024-02-23T04:38:02;86133.75;;;-142.97;41.22
8451;BME280;4262;50.980;13.892;2024-02-23T04:40:29;86169.22;;;-142.97;41.53
8451;BME280;4262;50.980;13.892;2024-02-23T04:42:56;86147.56;;;-142.97;40.87
8451;BME280;4262;50.980;13.892;2024-02-23T04:45:22;86200.75;;;-142.97;40.69
8451;BME280;4262;50.980;13.892;2024-02-23T04:47:51;86181.06;;;-142.97;40.46
8451;BME280;4262;50.980;13.892;2024-02-23T04:50:17;86155.44;;;-142.97;40.40
8451;BME280;4262;50.980;13.892;2024-02-23T04:52:44;86119.97;;;-142.97;40.15
8451;BME280;4262;50.980;13.892;2024-02-23T04:55:11;86110.13;;;-142.97;39.97
8451;BME280;4262;50.980;13.892;2024-02-23T04:57:38;86173.16;;;-142.97;40.62
8451;BME280;4262;50.980;13.892;2024-02-23T05:00:06;86114.06;;;-142.97;40.35
8451;BME280;4262;50.980;13.892;2024-02-23T05:02:34;86118.00;;;-142.97;40.54
8451;BME280;4262;50.980;13.892;2024-02-23T05:05:03;86171.19;;;-142.97;40.83
8451;BME280;4262;50.980;13.892;2024-02-23T05:07:30;86179.09;;;-142.97;40.76
8451;BME280;4262;50.980;13.892;2024-02-23T05:09:57;86127.84;;;-142.97;40.76
8451;BME280;4262;50.980;13.892;2024-02-23T05:12:24;86169.22;;;-142.97;40.86
8451;BME280;4262;50.980;13.892;2024-02-23T05:14:51;86161.34;;;-142.97;40.91
8451;BME280;4262;50.980;13.892;2024-02-23T05:17:17;86145.59;;;-142.97;41.05
8451;BME280;4262;50.980;13.892;2024-02-23T05:19:44;86177.09;;;-142.97;41.15
8451;BME280;4262;50.980;13.892;2024-02-23T05:22:13;86185.00;;;-142.97;41.47
8451;BME280;4262;50.980;13.892;2024-02-23T05:24:40;86208.63;;;-142.97;41.10
8451;BME280;4262;50.980;13.892;2024-02-23T05:27:06;86194.84;;;-142.97;41.17
8451;BME280;4262;50.980;13.892;2024-02-23T05:29:33;86271.69;;;-142.97;41.30
8451;BME280;4262;50.980;13.892;2024-02-23T05:31:59;86246.06;;;-142.97;40.62
8451;BME280;4262;50.980;13.892;2024-02-23T05:34:26;86240.16;;;-142.97;40.50
8451;BME280;4262;50.980;13.892;2024-02-23T05:36:52;86200.75;;;-142.97;40.19
8451;BME280;4262;50.980;13.892;2024-02-23T05:39:21;86202.72;;;-142.97;40.26
8451;BME280;4262;50.980;13.892;2024-02-23T05:41:47;86220.47;;;-142.97;39.97
8451;BME280;4262;50.980;13.892;2024-02-23T05:44:14;86177.09;;;-142.97;39.73
8451;BME280;4262;50.980;13.892;2024-02-23T05:46:42;86226.38;;;-142.97;39.55
8451;BME280;4262;50.980;13.892;2024-02-23T05:49:09;86218.50;;;-142.97;39.31
8451;BME280;4262;50.980;13.892;2024-02-23T05:51:36;86163.31;;;-142.97;39.31
8451;BME280;4262;50.980;13.892;2024-02-23T05:54:02;86185.00;;;-142.97;39.58
8451;BME280;4262;50.980;13.892;2024-02-23T05:56:30;86222.44;;;-142.97;39.13
8451;BME280;4262;50.980;13.892;2024-02-23T05:58:57;86216.50;;;-142.97;38.85
8451;BME280;4262;50.980;13.892;2024-02-23T06:01:24;86230.31;;;-142.97;38.95
8451;BME280;4262;50.980;13.892;2024-02-23T06:03:51;86267.75;;;-142.97;38.93
8451;BME280;4262;50.980;13.892;2024-02-23T06:06:18;86257.88;;;-142.97;39.00
8451;BME280;4262;50.980;13.892;2024-02-23T06:08:45;86281.53;;;-142.97;39.32
8451;BME280;4262;50.980;13.892;2024-02-23T06:11:15;86242.13;;;-142.97;38.77
8451;BME280;4262;50.980;13.892;2024-02-23T06:13:43;86275.63;;;-142.97;39.24
8451;BME280;4262;50.980;13.892;2024-02-23T06:16:10;86271.69;;;-142.97;39.14
8451;BME280;4262;50.980;13.892;2024-02-23T06:18:39;86253.94;;;-142.97;39.17
8451;BME280;4262;50.980;13.892;2024-02-23T06:21:13;86250.00;;;-142.97;39.26
8451;BME280;4262;50.980;13.892;2024-02-23T06:23:40;86287.44;;;-142.97;39.31
8451;BME280;4262;50.980;13.892;2024-02-23T06:26:07;86255.91;;;-142.97;39.63
8451;BME280;4262;50.980;13.892;2024-02-23T06:28:34;86330.78;;;-142.97;39.70
8451;BME280;4262;50.980;13.892;2024-02-23T06:31:04;86413.53;;;-142.97;39.88
8451;BME280;4262;50.980;13.892;2024-02-23T06:33:31;86246.06;;;-142.97;39.77
8451;BME280;4262;50.980;13.892;2024-02-23T06:35:58;86255.91;;;-142.97;39.63
8451;BME280;4262;50.980;13.892;2024-02-23T06:38:25;86271.69;;;-142.97;39.81
8451;BME280;4262;50.980;13.892;2024-02-23T06:40:51;86265.78;;;-142.97;39.86
8451;BME280;4262;50.980;13.892;2024-02-23T06:43:18;86279.56;;;-142.97;39.68
8451;BME280;4262;50.980;13.892;2024-02-23T06:45:45;86271.69;;;-142.97;39.63
8451;BME280;4262;50.980;13.892;2024-02-23T06:48:13;86202.72;;;-142.97;39.25
8451;BME280;4262;50.980;13.892;2024-02-23T06:50:40;86230.31;;;-142.97;39.51
8451;BME280;4262;50.980;13.892;2024-02-23T06:53:07;86190.91;;;-142.97;39.92
8451;BME280;4262;50.980;13.892;2024-02-23T06:55:34;86212.56;;;-142.97;39.47
8451;BME280;4262;50.980;13.892;2024-02-23T06:58:01;86190.91;;;-142.97;39.72
8451;BME280;4262;50.980;13.892;2024-02-23T07:00:27;86271.69;;;-142.97;39.83
8451;BME280;4262;50.980;13.892;2024-02-23T07:02:55;86226.38;;;-142.97;39.87
8451;BME280;4262;50.980;13.892;2024-02-23T07:05:25;86267.75;;;-142.97;39.98
8451;BME280;4262;50.980;13.892;2024-02-23T07:07:52;86214.53;;;-142.97;40.18
8451;BME280;4262;50.980;13.892;2024-02-23T07:10:19;86175.13;;;-142.97;40.02
8451;BME280;4262;50.980;13.892;2024-02-23T07:12:47;86092.38;;;-142.97;40.40
8451;BME280;4262;50.980;13.892;2024-02-23T07:15:14;86244.09;;;-142.97;40.26
8451;BME280;4262;50.980;13.892;2024-02-23T07:17:41;86297.28;;;-142.97;39.99
8451;BME280;4262;50.980;13.892;2024-02-23T07:20:09;86204.69;;;-142.97;40.11
8451;BME280;4262;50.980;13.892;2024-02-23T07:22:37;86261.84;;;-142.97;40.39
8451;BME280;4262;50.980;13.892;2024-02-23T07:25:04;86226.38;;;-142.97;40.04
8451;BME280;4262;50.980;13.892;2024-02-23T07:27:31;86155.44;;;-142.97;39.90
8451;BME280;4262;50.980;13.892;2024-02-23T07:29:58;86214.53;;;-142.97;40.26
8451;BME280;4262;50.980;13.892;2024-02-23T07:32:25;86186.97;;;-142.97;40.20
8451;BME280;4262;50.980;13.892;2024-02-23T07:34:52;86244.09;;;-142.97;40.18
8451;BME280;4262;50.980;13.892;2024-02-23T07:37:19;86188.94;;;-142.97;40.06
8451;BME280;4262;50.980;13.892;2024-02-23T07:39:47;86155.44;;;-142.97;39.58
8451;BME280;4262;50.980;13.892;2024-02-23T07:42:14;86175.13;;;-142.97;39.87
8451;BME280;4262;50.980;13.892;2024-02-23T07:44:43;86242.13;;;-142.97;39.79
8451;BME280;4262;50.980;13.892;2024-02-23T07:47:11;86208.63;;;-142.97;39.99
8451;BME280;4262;50.980;13.892;2024-02-23T07:49:38;86161.34;;;-142.97;39.59
8451;BME280;4262;50.980;13.892;2024-02-23T07:52:06;86255.91;;;-142.97;39.48
8451;BME280;4262;50.980;13.892;2024-02-23T07:54:33;86265.78;;;-142.97;39.88
8451;BME280;4262;50.980;13.892;2024-02-23T07:57:01;86352.47;;;-142.97;39.72
8451;BME280;4262;50.980;13.892;2024-02-23T07:59:30;86163.31;;;-142.97;39.76
8451;BME280;4262;50.980;13.892;2024-02-23T08:01:57;86216.50;;;-142.97;39.29
8451;BME280;4262;50.980;13.892;2024-02-23T08:04:24;86240.16;;;-142.97;39.47
8451;BME280;4262;50.980;13.892;2024-02-23T08:06:50;86161.34;;;-142.97;39.50
8451;BME280;4262;50.980;13.892;2024-02-23T08:09:17;86198.78;;;-142.97;39.60
8451;BME280;4262;50.980;13.892;2024-02-23T08:11:44;86153.47;;;-142.97;39.36
8451;BME280;4262;50.980;13.892;2024-02-23T08:14:13;86291.38;;;-142.97;39.55
8451;BME280;4262;50.980;13.892;2024-02-23T08:16:40;86253.94;;;-142.97;39.64
8451;BME280;4262;50.980;13.892;2024-02-23T08:19:07;86169.22;;;-142.97;39.46
8451;BME280;4262;50.980;13.892;2024-02-23T08:21:34;86186.97;;;-142.97;39.04
8451;BME280;4262;50.980;13.892;2024-02-23T08:24:00;86131.78;;;-142.97;38.80
8451;BME280;4262;50.980;13.892;2024-02-23T08:26:28;86210.59;;;-142.97;39.09
8451;BME280;4262;50.980;13.892;2024-02-23T08:28:55;86208.63;;;-142.97;39.40
8451;BME280;4262;50.980;13.892;2024-02-23T08:31:23;86222.44;;;-142.97;39.17
8451;BME280;4262;50.980;13.892;2024-02-23T08:33:49;86212.56;;;-142.97;39.27
8451;BME280;4262;50.980;13.892;2024-02-23T08:36:16;86159.38;;;-142.97;39.24
8451;BME280;4262;50.980;13.892;2024-02-23T08:38:43;86112.09;;;-142.97;38.98
8451;BME280;4262;50.980;13.892;2024-02-23T08:41:10;86159.38;;;-142.97;39.13
8451;BME280;4262;50.980;13.892;2024-02-23T08:43:36;86131.78;;;-142.97;39.00
8451;BME280;4262;50.980;13.892;2024-02-23T08:46:04;86133.75;;;-142.97;38.70
8451;BME280;4262;50.980;13.892;2024-02-23T08:48:32;86106.19;;;-142.97;38.90
8451;BME280;4262;50.980;13.892;2024-02-23T08:50:59;86186.97;;;-142.97;38.71
8451;BME280;4262;50.980;13.892;2024-02-23T08:53:26;86198.78;;;-142.97;38.86
8451;BME280;4262;50.980;13.892;2024-02-23T08:55:53;86131.78;;;-142.97;39.21
8451;BME280;4262;50.980;13.892;2024-02-23T08:58:20;86074.66;;;-142.97;39.10
8451;BME280;4262;50.980;13.892;2024-02-23T09:00:47;86102.25;;;-142.97;38.65
8451;BME280;4262;50.980;13.892;2024-02-23T09:03:14;86076.63;;;-142.97;38.44
8451;BME280;4262;50.980;13.892;2024-02-23T09:05:42;86043.13;;;-142.97;38.63
8451;BME280;4262;50.980;13.892;2024-02-23T09:08:09;86088.44;;;-142.97;38.79
8451;BME280;4262;50.980;13.892;2024-02-23T09:10:36;85838.25;;;-142.97;38.83
8451;BME280;4262;50.980;13.892;2024-02-23T09:13:03;85986.00;;;-142.97;38.13
8451;BME280;4262;50.980;13.892;2024-02-23T09:15:30;85826.44;;;-142.97;38.01
8451;BME280;4262;50.980;13.892;2024-02-23T09:17:57;85779.16;;;-142.97;37.43
8451;BME280;4262;50.980;13.892;2024-02-23T09:20:24;85653.06;;;-142.97;37.11
8451;BME280;4262;50.980;13.892;2024-02-23T09:22:52;85678.69;;;-142.97;36.27
8451;BME280;4262;50.980;13.892;2024-02-23T09:25:19;85716.09;;;-142.97;36.31
8451;BME280;4262;50.980;13.892;2024-02-23T09:27:46;85761.41;;;-142.97;36.74
8451;BME280;4262;50.980;13.892;2024-02-23T09:30:13;85733.84;;;-142.97;37.21
8451;BME280;4262;50.980;13.892;2024-02-23T09:32:41;85668.81;;;-142.97;37.43
8451;BME280;4262;50.980;13.892;2024-02-23T09:35:08;85623.53;;;-142.97;36.07
8451;BME280;4262;50.980;13.892;2024-02-23T09:37:34;85525.03;;;-142.97;36.41
8451;BME280;4262;50.980;13.892;2024-02-23T09:40:03;85645.19;;;-142.97;36.47
8451;BME280;4262;50.980;13.892;2024-02-23T09:42:31;85597.91;;;-142.97;36.29
8451;BME280;4262;50.980;13.892;2024-02-23T09:44:59;85787.03;;;-142.97;35.97
8451;BME280;4262;50.980;13.892;2024-02-23T09:47:27;85731.88;;;-142.97;36.35
8451;BME280;4262;50.980;13.892;2024-02-23T09:49:54;85160.63;;;-142.97;36.24
8451;BME280;4262;50.980;13.892;2024-02-23T09:52:22;85548.66;;;-142.97;35.75
8451;BME280;4262;50.980;13.892;2024-02-23T09:54:49;85485.63;;;-142.97;35.76
8451;BME280;4262;50.980;13.892;2024-02-23T09:57:17;85501.38;;;-142.97;35.23
8451;BME280;4262;50.980;13.892;2024-02-23T09:59:46;85168.50;;;-142.97;34.72
8451;BME280;4262;50.980;13.892;2024-02-23T10:02:15;85231.53;;;-142.97;34.19
8451;BME280;4262;50.980;13.892;2024-02-23T10:04:43;85081.84;;;-142.97;33.29
8451;BME280;4262;50.980;13.892;2024-02-23T10:07:14;85320.16;;;-142.97;32.92
8451;BME280;4262;50.980;13.892;2024-02-23T10:09:41;85373.34;;;-142.97;33.73
8451;BME280;4262;50.980;13.892;2024-02-23T10:12:08;85454.13;;;-142.97;34.33
8451;BME280;4262;50.980;13.892;2024-02-23T10:14:36;85530.94;;;-142.97;34.66
8451;BME280;4262;50.980;13.892;2024-02-23T10:17:03;85523.06;;;-142.97;34.02
8451;BME280;4262;50.980;13.892;2024-02-23T10:19:33;85515.19;;;-142.97;34.01
8451;BME280;4262;50.980;13.892;2024-02-23T10:22:00;85590.03;;;-142.97;34.70
8451;BME280;4262;50.980;13.892;2024-02-23T10:24:27;85629.44;;;-142.97;34.43
8451;BME280;4262;50.980;13.892;2024-02-23T10:26:53;85590.03;;;-142.97;34.67
8451;BME280;4262;50.980;13.892;2024-02-23T10:29:20;85629.44;;;-142.97;34.39
8451;BME280;4262;50.980;13.892;2024-02-23T10:31:51;85562.47;;;-142.97;34.44
8451;BME280;4262;50.980;13.892;2024-02-23T10:34:19;85546.69;;;-142.97;34.73
8451;BME280;4262;50.980;13.892;2024-02-23T10:36:46;85627.47;;;-142.97;34.92
8451;BME280;4262;50.980;13.892;2024-02-23T10:39:17;85615.63;;;-142.97;34.76
8451;BME280;4262;50.980;13.892;2024-02-23T10:41:47;85731.88;;;-142.97;35.28
8451;BME280;4262;50.980;13.892;2024-02-23T10:44:16;85834.31;;;-142.97;34.96
8451;BME280;4262;50.980;13.892;2024-02-23T10:46:44;85810.66;;;-142.97;34.89
8451;BME280;4262;50.980;13.892;2024-02-23T10:49:14;85783.09;;;-142.97;34.80
8451;BME280;4262;50.980;13.892;2024-02-23T10:51:42;85779.16;;;-142.97;35.21
8451;BME280;4262;50.980;13.892;2024-02-23T10:54:10;85765.34;;;-142.97;35.16
8451;BME280;4262;50.980;13.892;2024-02-23T10:56:38;85810.66;;;-142.97;35.01
8451;BME280;4262;50.980;13.892;2024-02-23T10:59:08;85826.44;;;-142.97;35.07
8451;BME280;4262;50.980;13.892;2024-02-23T11:01:36;85940.69;;;-142.97;35.45
8451;BME280;4262;50.980;13.892;2024-02-23T11:04:06;85909.16;;;-142.97;35.69
8451;BME280;4262;50.980;13.892;2024-02-23T11:06:35;85873.72;;;-142.97;35.59
8451;BME280;4262;50.980;13.892;2024-02-23T11:09:05;85854.00;;;-142.97;35.23
8451;BME280;4262;50.980;13.892;2024-02-23T11:11:33;85946.59;;;-142.97;35.83
8451;BME280;4262;50.980;13.892;2024-02-23T11:14:03;85950.53;;;-142.97;35.81
8451;BME280;4262;50.980;13.892;2024-02-23T11:16:38;85911.13;;;-142.97;35.42
8451;BME280;4262;50.980;13.892;2024-02-23T11:19:06;85989.94;;;-142.97;35.59
8451;BME280;4262;50.980;13.892;2024-02-23T11:21:35;85909.16;;;-142.97;35.71
8451;BME280;4262;50.980;13.892;2024-02-23T11:24:04;85871.75;;;-142.97;35.67
8451;BME280;4262;50.980;13.892;2024-02-23T11:26:31;85844.16;;;-142.97;34.99
8451;BME280;4262;50.980;13.892;2024-02-23T11:29:08;85826.44;;;-142.97;35.40
8451;BME280;4262;50.980;13.892;2024-02-23T11:31:35;85816.56;;;-142.97;35.32
8451;BME280;4262;50.980;13.892;2024-02-23T11:34:08;85787.03;;;-142.97;34.88
8451;BME280;4262;50.980;13.892;2024-02-23T11:36:38;85926.91;;;-142.97;34.54
8451;BME280;4262;50.980;13.892;2024-02-23T11:39:05;85865.81;;;-142.97;34.55
8451;BME280;4262;50.980;13.892;2024-02-23T11:41:32;85838.25;;;-142.97;34.55
8451;BME280;4262;50.980;13.892;2024-02-23T11:43:58;85830.38;;;-142.97;34.96
8451;BME280;4262;50.980;13.892;2024-02-23T11:46:26;85790.97;;;-142.97;34.58
8451;BME280;4262;50.980;13.892;2024-02-23T11:48:53;85875.69;;;-142.97;34.66
8451;BME280;4262;50.980;13.892;2024-02-23T11:51:20;85887.50;;;-142.97;34.50
8451;BME280;4262;50.980;13.892;2024-02-23T11:53:49;85834.31;;;-142.97;34.31
8451;BME280;4262;50.980;13.892;2024-02-23T11:56:16;85869.78;;;-142.97;34.37
8451;BME280;4262;50.980;13.892;2024-02-23T11:58:44;85930.84;;;-142.97;34.69
8451;BME280;4262;50.980;13.892;2024-02-23T12:01:11;85915.09;;;-142.97;34.84
8451;BME280;4262;50.980;13.892;2024-02-23T12:03:37;85905.22;;;-142.97;35.20
8451;BME280;4262;50.980;13.892;2024-02-23T12:06:06;85932.81;;;-142.97;34.96
8451;BME280;4262;50.980;13.892;2024-02-23T12:08:34;85834.31;;;-142.97;34.80
8451;BME280;4262;50.980;13.892;2024-02-23T12:11:05;85806.72;;;-142.97;34.03
8451;BME280;4262;50.980;13.892;2024-02-23T12:13:34;85763.38;;;-142.97;34.41
8451;BME280;4262;50.980;13.892;2024-02-23T12:16:01;85753.53;;;-142.97;33.72
8451;BME280;4262;50.980;13.892;2024-02-23T12:18:28;85775.22;;;-142.97;33.89
8451;BME280;4262;50.980;13.892;2024-02-23T12:20:59;85826.44;;;-142.97;34.03
8451;BME280;4262;50.980;13.892;2024-02-23T12:23:25;85739.75;;;-142.97;34.00
8451;BME280;4262;50.980;13.892;2024-02-23T12:25:53;85777.19;;;-142.97;33.97
8451;BME280;4262;50.980;13.892;2024-02-23T12:28:22;85789.00;;;-142.97;33.78
8451;BME280;4262;50.980;13.892;2024-02-23T12:31:01;85779.16;;;-142.97;33.84
8451;BME280;4262;50.980;13.892;2024-02-23T12:33:28;85804.75;;;-142.97;34.10
8451;BME280;4262;50.980;13.892;2024-02-23T12:35:55;85755.50;;;-142.97;34.14
8451;BME280;4262;50.980;13.892;2024-02-23T12:38:22;85775.22;;;-142.97;34.19
8451;BME280;4262;50.980;13.892;2024-02-23T12:40:50;85708.22;;;-142.97;33.39
8451;BME280;4262;50.980;13.892;2024-02-23T12:43:17;85680.66;;;-142.97;33.07
8451;BME280;4262;50.980;13.892;2024-02-23T12:45:48;85639.28;;;-142.97;33.49
8451;BME280;4262;50.980;13.892;2024-02-23T12:48:15;85658.97;;;-142.97;34.19
8451;BME280;4262;50.980;13.892;2024-02-23T12:50:42;85617.63;;;-142.97;35.04